Weather at London Gatwick Airport

Public forecast

Using degrees Celsius for public forecast. Weather courtesy of forecast.io.

Current aviation weather report (METAR) for London Gatwick Airport

Retrieved 2022/07/06 03:20 UTC (16 minutes ago):

EGKK 060320Z 26004KT CAVOK 11/07 Q1028

Aviation forecast (TAF) for London Gatwick Airport

Retrieved 2022-07-06 00:00 UTC (4 hours ago):

TAF EGKK 052256Z 0600/0706 31005KT 9999 SCT040